LIED/DCI METAR and TAF weather

Enter ICAO airport designator
Station Type Date Time Source
LIED METAR 2020/09/18 15:55 UTC NOAA

LIED 181555Z 15010KT CAVOK 30/21 Q1016 RMK SCT SCT200 VIS MIN 9999 WIND THR35 15010KT WIND THR17 15009KT BLU


Station Type Date Time Source
LIED Decoded METAR 2020/09/18 15:55 UTC NOAA

Decimomannu, Italy (LIED) 39-21N 008-58E 28M
Sep 18, 2020 - 11:55 AM EDT / 2020.09.18 1555 UTC
Wind: from the SSE (150 degrees) at 12 MPH (10 KT):0
Visibility: greater than 7 mile(s):0
Temperature: 86 F (30 C)
Dew Point: 69 F (21 C)
Relative Humidity: 58%
Pressure (altimeter): 30.00 in. Hg (1016 hPa)
ob: LIED 181555Z 15010KT CAVOK 30/21 Q1016 RMK SCT SCT200 VIS MIN 9999 WIND THR35 15010KT WIND THR17 15009KT BLU
cycle: 16

Station Type Date Time Source
LIED TAF 2020/06/17 18:36 UTC NOAA

TAF TAF
AMD LIED 171701Z 1718/1806 32010KT CAVOK

Example: see airport list